Time,TemperatureF,DewpointF,PressureIn,WindDirection,WindDirectionDegrees,WindSpeedMPH,WindSpeedGustMPH,Humidity,HourlyPrecipIn,Conditions,Clouds,dailyrainin,SoftwareType,DateUTC
2013-09-15 00:13:00,44.7,45.0,30.08,ENE,69,1.0,1.0,100,0.00,,,0.08,weatherlink.com 1.10,2013-09-15 04:13:00,
2013-09-15 00:28:00,44.4,44.0,30.08,ENE,69,0.0,1.0,100,0.00,,,0.08,weatherlink.com 1.10,2013-09-15 04:28:00,
2013-09-15 00:43:00,44.1,44.0,30.08,ENE,64,1.0,1.0,100,0.00,,,0.08,weatherlink.com 1.10,2013-09-15 04:43:00,
2013-09-15 00:58:00,43.8,44.0,30.08,ENE,64,0.0,1.0,100,0.00,,,0.08,weatherlink.com 1.10,2013-09-15 04:58:00,
2013-09-15 01:13:00,43.5,44.0,30.07,ENE,63,1.0,2.0,100,0.00,,,0.08,weatherlink.com 1.10,2013-09-15 05:13:00,
2013-09-15 01:28:00,43.5,44.0,30.07,ENE,63,2.0,2.0,100,0.00,,,0.08,weatherlink.com 1.10,2013-09-15 05:28:00,
2013-09-15 01:43:00,43.3,43.0,30.08,ENE,63,1.0,1.0,100,0.00,,,0.08,weatherlink.com 1.10,2013-09-15 05:43:00,
2013-09-15 01:58:00,43.3,43.0,30.08,ENE,63,1.0,2.0,100,0.00,,,0.08,weatherlink.com 1.10,2013-09-15 05:58:00,
2013-09-15 02:13:00,43.2,43.0,30.08,ENE,57,2.0,2.0,100,0.00,,,0.00,weatherlink.com 1.10,2013-09-15 06:13:00,
2013-09-15 02:28:00,43.0,43.0,30.07,NE,53,1.0,1.0,100,0.00,,,0.00,weatherlink.com 1.10,2013-09-15 06:28:00,
2013-09-15 02:43:00,42.9,43.0,30.08,NE,49,1.0,2.0,100,0.00,,,0.00,weatherlink.com 1.10,2013-09-15 06:43:00,
2013-09-15 02:58:00,42.6,43.0,30.08,NE,51,1.0,1.0,100,0.00,,,0.00,weatherlink.com 1.10,2013-09-15 06:58:00,
2013-09-15 03:13:00,42.4,42.0,30.08,NE,49,1.0,2.0,100,0.00,,,0.00,weatherlink.com 1.10,2013-09-15 07:13:00,
2013-09-15 03:28:00,42.4,42.0,30.09,NE,51,0.0,1.0,100,0.00,,,0.00,weatherlink.com 1.10,2013-09-15 07:28:00,
2013-09-15 03:43:00,42.3,42.0,30.09,NE,49,0.0,1.0,100,0.00,,,0.00,weatherlink.com 1.10,2013-09-15 07:43:00,
2013-09-15 03:58:00,42.4,42.0,30.09,NE,49,0.0,0.0,100,0.00,,,0.00,weatherlink.com 1.10,2013-09-15 07:58:00,
2013-09-15 04:13:00,42.4,42.0,30.09,NE,49,0.0,1.0,100,0.00,,,0.00,weatherlink.com 1.10,2013-09-15 08:13:00,
2013-09-15 04:28:00,42.2,42.0,30.09,NE,50,1.0,1.0,100,0.00,,,0.00,weatherlink.com 1.10,2013-09-15 08:28:00,
2013-09-15 04:43:00,42.1,42.0,30.10,NE,50,0.0,1.0,100,0.00,,,0.00,weatherlink.com 1.10,2013-09-15 08:43:00,
2013-09-15 04:58:00,42.2,42.0,30.10,NE,50,0.0,1.0,100,0.00,,,0.00,weatherlink.com 1.10,2013-09-15 08:58:00,
2013-09-15 05:13:00,42.2,42.0,30.11,NE,50,0.0,0.0,100,0.00,,,0.00,weatherlink.com 1.10,2013-09-15 09:13:00,
2013-09-15 05:28:00,42.0,42.0,30.11,NE,50,1.0,1.0,100,0.00,,,0.00,weatherlink.com 1.10,2013-09-15 09:28:00,
2013-09-15 05:43:00,41.9,42.0,30.11,NE,50,0.0,1.0,100,0.00,,,0.00,weatherlink.com 1.10,2013-09-15 09:43:00,
2013-09-15 05:58:00,41.9,42.0,30.11,NE,49,1.0,1.0,100,0.00,,,0.00,weatherlink.com 1.10,2013-09-15 09:58:00,
2013-09-15 06:14:00,42.0,42.0,30.11,NE,50,0.0,1.0,100,0.00,,,0.00,weatherlink.com 1.10,2013-09-15 10:14:00,
2013-09-15 06:29:00,42.1,42.0,30.11,NE,49,0.0,1.0,100,0.00,,,0.00,weatherlink.com 1.10,2013-09-15 10:29:00,
2013-09-15 06:44:00,42.1,42.0,30.12,NE,50,1.0,1.0,100,0.00,,,0.00,weatherlink.com 1.10,2013-09-15 10:44:00,
2013-09-15 06:59:00,42.6,43.0,30.12,NE,50,1.0,1.0,100,0.00,,,0.00,weatherlink.com 1.10,2013-09-15 10:59:00,
2013-09-15 07:14:00,44.1,44.0,30.12,NE,50,0.0,1.0,100,0.00,,,0.00,weatherlink.com 1.10,2013-09-15 11:14:00,
2013-09-15 07:29:00,46.3,46.0,30.12,NE,50,0.0,0.0,100,0.00,,,0.00,weatherlink.com 1.10,2013-09-15 11:29:00,
2013-09-15 07:44:00,47.1,45.0,30.12,SE,138,0.0,1.0,93,0.00,,,0.00,weatherlink.com 1.10,2013-09-15 11:44:00,
2013-09-15 07:59:00,49.1,48.0,30.13,SE,137,0.0,1.0,95,0.00,,,0.00,weatherlink.com 1.10,2013-09-15 11:59:00,
2013-09-15 08:14:00,51.5,48.0,30.13,South,172,0.0,2.0,88,0.00,,,0.00,weatherlink.com 1.10,2013-09-15 12:14:00,
2013-09-15 08:29:00,52.4,50.0,30.13,SE,141,0.0,2.0,91,0.00,,,0.00,weatherlink.com 1.10,2013-09-15 12:29:00,
2013-09-15 08:44:00,52.2,49.0,30.14,SSE,150,2.0,3.0,88,0.00,,,0.00,weatherlink.com 1.10,2013-09-15 12:44:00,
2013-09-15 08:59:00,52.3,48.0,30.14,South,182,1.0,3.0,84,0.00,,,0.00,weatherlink.com 1.10,2013-09-15 12:59:00,
2013-09-15 09:14:00,53.6,49.0,30.14,South,169,3.0,3.0,83,0.00,,,0.00,weatherlink.com 1.10,2013-09-15 13:14:00,
2013-09-15 09:44:00,56.7,49.0,30.14,South,191,0.0,4.0,74,0.00,,,0.00,weatherlink.com 1.10,2013-09-15 13:44:00,
2013-09-15 09:59:00,57.9,48.0,30.14,WSW,254,0.0,4.0,70,0.00,,,0.00,weatherlink.com 1.10,2013-09-15 13:59:00,
2013-09-15 10:14:00,59.4,51.0,30.14,SW,221,1.0,2.0,73,0.00,,,0.00,weatherlink.com 1.10,2013-09-15 14:14:00,
2013-09-15 10:29:00,59.3,49.0,30.14,SSW,192,3.0,5.0,68,0.00,,,0.00,weatherlink.com 1.10,2013-09-15 14:29:00,
2013-09-15 10:44:00,60.1,49.0,30.14,West,280,0.0,2.0,68,0.00,,,0.00,weatherlink.com 1.10,2013-09-15 14:44:00,
2013-09-15 10:59:00,60.3,52.0,30.14,NW,307,0.0,2.0,74,0.00,,,0.00,weatherlink.com 1.10,2013-09-15 14:59:00,
2013-09-15 11:14:00,60.1,50.0,30.14,NNW,332,0.0,3.0,70,0.00,,,0.00,weatherlink.com 1.10,2013-09-15 15:14:00,
2013-09-15 11:29:00,59.5,50.0,30.14,WNW,289,0.0,0.0,70,0.00,,,0.00,weatherlink.com 1.10,2013-09-15 15:29:00,
2013-09-15 11:44:00,58.5,49.0,30.13,NW,307,0.0,1.0,70,0.00,,,0.00,weatherlink.com 1.10,2013-09-15 15:44:00,
2013-09-15 11:59:00,59.8,50.0,30.13,West,275,1.0,3.0,70,0.00,,,0.00,weatherlink.com 1.10,2013-09-15 15:59:00,
2013-09-15 12:14:00,61.3,50.0,30.13,West,266,1.0,2.0,66,0.00,,,0.00,weatherlink.com 1.10,2013-09-15 16:14:00,
2013-09-15 12:29:00,61.8,49.0,30.12,SE,134,0.0,4.0,63,0.00,,,0.00,weatherlink.com 1.10,2013-09-15 16:29:00,
2013-09-15 12:44:00,62.4,51.0,30.12,SE,134,0.0,2.0,66,0.00,,,0.00,weatherlink.com 1.10,2013-09-15 16:44:00,
2013-09-15 13:00:00,61.5,51.0,30.12,North,5,0.0,3.0,68,0.00,,,0.00,weatherlink.com 1.10,2013-09-15 17:00:00,
2013-09-15 13:15:00,61.3,51.0,30.11,SE,142,1.0,1.0,69,0.00,,,0.00,weatherlink.com 1.10,2013-09-15 17:15:00,
2013-09-15 13:30:00,61.2,50.0,30.10,NE,40,0.0,3.0,67,0.00,,,0.00,weatherlink.com 1.10,2013-09-15 17:30:00,
2013-09-15 13:45:00,60.6,51.0,30.10,SW,228,0.0,1.0,71,0.00,,,0.00,weatherlink.com 1.10,2013-09-15 17:45:00,
2013-09-15 14:00:00,60.2,50.0,30.09,WNW,284,0.0,2.0,68,0.00,,,0.00,weatherlink.com 1.10,2013-09-15 18:00:00,
2013-09-15 14:15:00,60.7,51.0,30.09,ESE,117,1.0,3.0,70,0.00,,,0.00,weatherlink.com 1.10,2013-09-15 18:15:00,
2013-09-15 14:30:00,61.0,51.0,30.08,SE,146,0.0,0.0,70,0.00,,,0.00,weatherlink.com 1.10,2013-09-15 18:30:00,
2013-09-15 14:45:00,60.5,52.0,30.07,SSE,155,0.0,0.0,73,0.00,,,0.00,weatherlink.com 1.10,2013-09-15 18:45:00,
2013-09-15 15:00:00,60.9,52.0,30.08,NE,53,0.0,1.0,72,0.00,,,0.00,weatherlink.com 1.10,2013-09-15 19:00:00,
2013-09-15 15:15:00,60.6,51.0,30.07,NW,315,0.0,2.0,70,0.00,,,0.00,weatherlink.com 1.10,2013-09-15 19:15:00,
2013-09-15 15:30:00,59.8,52.0,30.06,NW,311,0.0,1.0,75,0.00,,,0.00,weatherlink.com 1.10,2013-09-15 19:30:00,
2013-09-15 15:45:00,60.1,51.0,30.06,SE,141,0.0,3.0,72,0.00,,,0.00,weatherlink.com 1.10,2013-09-15 19:45:00,
2013-09-15 16:00:00,60.8,51.0,30.06,SSW,197,1.0,3.0,71,0.00,,,0.00,weatherlink.com 1.10,2013-09-15 20:00:00,
2013-09-15 16:15:00,60.9,54.0,30.05,SW,229,0.0,1.0,79,0.00,,,0.00,weatherlink.com 1.10,2013-09-15 20:15:00,
2013-09-15 16:30:00,60.3,52.0,30.05,WSW,257,0.0,0.0,75,0.00,,,0.00,weatherlink.com 1.10,2013-09-15 20:30:00,
2013-09-15 16:45:00,59.9,52.0,30.06,WSW,252,0.0,1.0,76,0.00,,,0.00,weatherlink.com 1.10,2013-09-15 20:45:00,
2013-09-15 17:00:00,59.6,53.0,30.05,SE,129,0.0,1.0,79,0.00,,,0.00,weatherlink.com 1.10,2013-09-15 21:00:00,
2013-09-15 17:15:00,59.3,53.0,30.04,ESE,107,0.0,1.0,80,0.00,,,0.00,weatherlink.com 1.10,2013-09-15 21:15:00,
2013-09-15 17:30:00,58.0,54.0,30.06,ESE,107,0.0,1.0,87,0.00,,,0.00,weatherlink.com 1.10,2013-09-15 21:30:00,
2013-09-15 17:45:00,57.6,54.0,30.05,ESE,107,0.0,1.0,89,0.00,,,0.00,weatherlink.com 1.10,2013-09-15 21:45:00,
2013-09-15 18:00:00,57.2,54.0,30.06,ESE,108,0.0,1.0,90,0.00,,,0.00,weatherlink.com 1.10,2013-09-15 22:00:00,
2013-09-15 18:15:00,56.5,54.0,30.04,ESE,107,0.0,1.0,90,0.00,,,0.00,weatherlink.com 1.10,2013-09-15 22:15:00,
2013-09-15 18:30:00,55.8,54.0,30.05,ESE,106,0.0,1.0,92,0.00,,,0.00,weatherlink.com 1.10,2013-09-15 22:30:00,
2013-09-15 18:45:00,55.3,53.0,30.05,ESE,106,1.0,1.0,92,0.00,,,0.00,weatherlink.com 1.10,2013-09-15 22:45:00,
2013-09-15 19:00:00,54.5,52.0,30.03,ESE,106,0.0,1.0,92,0.00,,,0.00,weatherlink.com 1.10,2013-09-15 23:00:00,
2013-09-15 19:15:00,53.8,52.0,30.04,ESE,106,0.0,1.0,93,0.00,,,0.00,weatherlink.com 1.10,2013-09-15 23:15:00,
2013-09-15 19:30:00,53.5,52.0,30.04,ESE,106,0.0,1.0,95,0.00,,,0.00,weatherlink.com 1.10,2013-09-15 23:30:00,
2013-09-15 19:45:00,53.5,52.0,30.04,ESE,106,0.0,1.0,96,0.00,,,0.00,weatherlink.com 1.10,2013-09-15 23:45:00,
2013-09-15 20:00:00,53.2,52.0,30.05,ESE,106,1.0,1.0,96,0.00,,,0.00,weatherlink.com 1.10,2013-09-16 00:00:00,
2013-09-15 20:15:00,53.0,52.0,30.04,ESE,106,0.0,1.0,95,0.00,,,0.00,weatherlink.com 1.10,2013-09-16 00:15:00,
2013-09-15 20:30:00,52.7,52.0,30.05,ESE,106,1.0,1.0,96,0.00,,,0.00,weatherlink.com 1.10,2013-09-16 00:30:00,
2013-09-15 20:45:00,52.7,51.0,30.05,ESE,106,0.0,1.0,95,0.00,,,0.00,weatherlink.com 1.10,2013-09-16 00:45:00,
2013-09-15 21:00:00,52.9,51.0,30.06,ESE,106,0.0,1.0,94,0.00,,,0.00,weatherlink.com 1.10,2013-09-16 01:00:00,
2013-09-15 21:15:00,52.5,51.0,30.06,ESE,106,0.0,1.0,94,0.00,,,0.00,weatherlink.com 1.10,2013-09-16 01:15:00,
2013-09-15 21:30:00,52.0,50.0,30.05,ESE,106,0.0,1.0,94,0.00,,,0.00,weatherlink.com 1.10,2013-09-16 01:30:00,
2013-09-15 21:45:00,51.8,51.0,30.04,ESE,106,0.0,1.0,95,0.00,,,0.00,weatherlink.com 1.10,2013-09-16 01:45:00,
2013-09-15 22:00:00,51.9,51.0,30.03,ESE,106,0.0,1.0,96,0.00,,,0.00,weatherlink.com 1.10,2013-09-16 02:00:00,
2013-09-15 22:15:00,52.0,51.0,30.04,ESE,106,1.0,1.0,96,0.00,,,0.00,weatherlink.com 1.10,2013-09-16 02:15:00,
2013-09-15 22:30:00,52.1,51.0,30.04,ESE,106,0.0,1.0,96,0.00,,,0.00,weatherlink.com 1.10,2013-09-16 02:30:00,
2013-09-15 22:45:00,52.2,51.0,30.05,ESE,106,1.0,1.0,96,0.00,,,0.00,weatherlink.com 1.10,2013-09-16 02:45:00,
2013-09-15 23:00:00,52.4,51.0,30.05,ESE,106,0.0,1.0,95,0.00,,,0.00,weatherlink.com 1.10,2013-09-16 03:00:00,
2013-09-15 23:15:00,52.5,51.0,30.03,ESE,106,0.0,1.0,95,0.00,,,0.00,weatherlink.com 1.10,2013-09-16 03:15:00,
2013-09-15 23:30:00,52.4,51.0,30.00,ESE,106,0.0,0.0,96,0.00,,,0.00,weatherlink.com 1.10,2013-09-16 03:30:00,
2013-09-15 23:45:00,52.5,51.0,30.03,ESE,106,0.0,1.0,96,0.00,,,0.00,weatherlink.com 1.10,2013-09-16 03:45:00,